createdAt,value
2022-08-19T00:00:16.056Z,60.70
2022-08-19T00:03:22.169Z,60.98
2022-08-19T00:06:32.453Z,61.45
2022-08-19T00:09:38.608Z,61.62
2022-08-19T00:12:48.169Z,61.67
2022-08-19T00:16:00.634Z,61.94
2022-08-19T00:19:06.939Z,62.33
2022-08-19T00:22:13.076Z,62.91
2022-08-19T00:25:30.039Z,63.28
2022-08-19T00:28:49.614Z,63.48
2022-08-19T00:31:56.621Z,63.69
2022-08-19T00:35:03.584Z,63.87
2022-08-19T00:38:09.283Z,64.37
2022-08-19T00:41:17.204Z,64.58
2022-08-19T00:44:27.133Z,65.38
2022-08-19T00:47:33.295Z,65.32
2022-08-19T00:50:51.881Z,65.68
2022-08-19T00:54:10.963Z,65.69
2022-08-19T00:57:21.718Z,65.68
2022-08-19T01:00:29.802Z,66.55
2022-08-19T01:03:58.121Z,66.10
2022-08-19T01:07:04.606Z,66.34
2022-08-19T01:10:14.097Z,66.67
2022-08-19T01:13:23.552Z,66.72
2022-08-19T01:16:30.952Z,66.64
2022-08-19T01:19:43.932Z,67.00
2022-08-19T01:22:58.411Z,67.14
2022-08-19T01:26:04.267Z,67.22
2022-08-19T01:29:10.444Z,67.17
2022-08-19T01:32:33.178Z,68.19
2022-08-19T01:35:47.165Z,68.00
2022-08-19T01:38:54.160Z,67.90
2022-08-19T01:41:59.802Z,67.71
2022-08-19T01:45:09.159Z,67.92
2022-08-19T01:48:15.976Z,68.68
2022-08-19T01:51:22.307Z,68.69
2022-08-19T01:54:28.532Z,69.16
2022-08-19T01:57:34.753Z,68.99
2022-08-19T02:00:40.832Z,69.36
2022-08-19T02:03:47.657Z,69.57
2022-08-19T02:06:53.879Z,69.79
2022-08-19T02:10:00.253Z,69.96
2022-08-19T02:13:09.737Z,70.44
2022-08-19T02:16:18.326Z,70.34
2022-08-19T02:19:24.286Z,70.65
2022-08-19T02:22:30.467Z,70.79
2022-08-19T02:25:36.080Z,70.66
2022-08-19T02:28:44.330Z,71.25
2022-08-19T02:31:50.259Z,71.62
2022-08-19T02:34:56.329Z,71.30
2022-08-19T02:38:22.396Z,71.49
2022-08-19T02:41:31.352Z,71.37
2022-08-19T02:44:37.053Z,71.92
2022-08-19T02:47:43.383Z,71.70
2022-08-19T02:50:53.640Z,72.25
2022-08-19T02:54:01.659Z,72.29
2022-08-19T02:57:07.983Z,72.07
2022-08-19T03:00:15.036Z,72.16
2022-08-19T03:03:21.507Z,71.95
2022-08-19T03:06:27.320Z,72.08
2022-08-19T03:09:33.272Z,72.27
2022-08-19T03:12:40.575Z,72.94
2022-08-19T03:15:48.580Z,72.86
2022-08-19T03:18:55.898Z,73.32
2022-08-19T03:22:02.405Z,73.29
2022-08-19T03:25:09.085Z,73.88
2022-08-19T03:28:16.893Z,73.38
2022-08-19T03:31:43.318Z,73.08
2022-08-19T03:34:55.449Z,73.60
2022-08-19T03:38:01.727Z,73.41
2022-08-19T03:41:10.075Z,73.89
2022-08-19T03:44:18.416Z,73.84
2022-08-19T03:47:24.850Z,74.00
2022-08-19T03:50:31.358Z,73.53
2022-08-19T03:53:37.481Z,73.71
2022-08-19T03:56:44.829Z,73.45
2022-08-19T03:59:51.124Z,73.65
2022-08-19T04:02:58.718Z,73.40
2022-08-19T04:06:16.300Z,73.10
2022-08-19T04:09:22.499Z,74.29
2022-08-19T04:12:28.815Z,73.77
2022-08-19T04:15:41.206Z,73.70
2022-08-19T04:18:47.713Z,73.88
2022-08-19T04:21:55.464Z,73.07
2022-08-19T04:25:01.308Z,73.42
2022-08-19T04:28:07.601Z,73.16
2022-08-19T04:31:18.821Z,73.13
2022-08-19T04:34:27.622Z,73.69
2022-08-19T04:37:35.753Z,73.41
2022-08-19T04:41:03.147Z,73.37
2022-08-19T04:44:09.818Z,72.95
2022-08-19T04:47:15.803Z,73.02
2022-08-19T04:50:44.939Z,73.25
2022-08-19T04:53:52.002Z,72.23
2022-08-19T04:56:58.099Z,71.57
2022-08-19T05:00:04.217Z,72.00
2022-08-19T05:03:10.401Z,71.11
2022-08-19T05:06:17.368Z,70.14
2022-08-19T05:09:23.398Z,69.21
2022-08-19T05:12:30.520Z,68.18
2022-08-19T05:15:37.409Z,67.33
2022-08-19T05:19:03.373Z,66.48
2022-08-19T05:22:28.651Z,66.06
2022-08-19T05:25:35.462Z,65.26
2022-08-19T05:28:41.532Z,64.13
2022-08-19T05:31:49.034Z,62.78
2022-08-19T05:34:55.604Z,61.82
2022-08-19T05:38:01.722Z,61.03
2022-08-19T05:41:11.162Z,60.64
2022-08-19T05:44:19.312Z,59.51
2022-08-19T05:47:25.397Z,58.90
2022-08-19T05:50:32.095Z,58.60
2022-08-19T05:53:43.028Z,57.19
2022-08-19T05:56:49.156Z,55.52
2022-08-19T05:59:58.690Z,54.93
2022-08-19T06:03:09.704Z,55.26
2022-08-19T06:06:23.912Z,53.87
2022-08-19T06:09:29.853Z,53.28
2022-08-19T06:12:37.356Z,53.21
2022-08-19T06:15:45.990Z,52.33
2022-08-19T06:18:56.171Z,52.04
2022-08-19T06:22:03.305Z,50.66
2022-08-19T06:25:11.222Z,50.47
2022-08-19T06:28:17.469Z,50.51
2022-08-19T06:31:33.212Z,49.12
2022-08-19T06:34:42.993Z,48.22
2022-08-19T06:37:49.091Z,48.15
2022-08-19T06:41:17.033Z,47.08
2022-08-19T06:44:25.832Z,47.70
2022-08-19T06:47:32.809Z,46.88
2022-08-19T06:50:39.725Z,45.54
2022-08-19T06:56:55.308Z,45.93
2022-08-19T07:00:02.079Z,46.22
2022-08-19T07:03:13.071Z,45.05
2022-08-19T07:09:52.279Z,43.39
2022-08-19T07:13:19.496Z,43.30
2022-08-19T07:16:28.843Z,43.22
2022-08-19T07:19:35.616Z,42.02
2022-08-19T07:22:41.755Z,42.00
2022-08-19T07:25:53.090Z,41.53
2022-08-19T07:29:09.907Z,41.27
2022-08-19T07:32:15.930Z,40.32
2022-08-19T07:35:30.066Z,40.74
2022-08-19T07:38:37.005Z,40.31
2022-08-19T07:41:49.312Z,39.57
2022-08-19T07:44:55.887Z,38.70
2022-08-19T07:48:24.943Z,38.14
2022-08-19T07:51:36.516Z,38.57
2022-08-19T07:54:58.882Z,37.29
2022-08-19T07:58:05.452Z,37.63
2022-08-19T08:01:20.770Z,36.24
2022-08-19T08:04:49.871Z,37.03
2022-08-19T08:08:16.062Z,36.75
2022-08-19T08:11:24.184Z,36.33
2022-08-19T08:14:36.795Z,36.76
2022-08-19T08:17:49.837Z,35.70
2022-08-19T08:21:15.233Z,34.66
2022-08-19T08:24:22.380Z,35.31
2022-08-19T08:27:53.727Z,34.83
2022-08-19T08:31:01.478Z,34.55
2022-08-19T08:34:07.512Z,34.18
2022-08-19T08:37:13.601Z,34.99
2022-08-19T08:40:26.569Z,34.51
2022-08-19T08:43:45.472Z,35.00
2022-08-19T08:46:58.806Z,34.72
2022-08-19T08:50:17.811Z,35.64
2022-08-19T08:53:31.168Z,35.43
2022-08-19T08:56:44.579Z,35.35
2022-08-19T08:59:53.187Z,35.41
2022-08-19T09:03:01.748Z,35.15
2022-08-19T09:06:26.833Z,34.50
2022-08-19T09:09:46.013Z,34.05
2022-08-19T09:13:02.260Z,34.37
2022-08-19T09:16:27.953Z,34.73
2022-08-19T09:19:34.128Z,35.51
2022-08-19T09:22:40.920Z,34.69
2022-08-19T09:25:52.956Z,34.45
2022-08-19T09:28:59.869Z,33.63
2022-08-19T09:32:06.245Z,32.78
2022-08-19T09:35:33.558Z,32.26
2022-08-19T09:39:04.753Z,31.27
2022-08-19T09:42:30.220Z,30.07
2022-08-19T09:45:54.716Z,31.57
2022-08-19T09:49:06.282Z,31.49
2022-08-19T09:52:13.803Z,30.96
2022-08-19T09:55:21.397Z,30.94
2022-08-19T09:58:32.193Z,30.42
2022-08-19T10:01:38.059Z,30.43
2022-08-19T10:05:05.850Z,28.80
2022-08-19T10:08:14.538Z,28.16
2022-08-19T10:11:28.268Z,27.31
2022-08-19T10:14:53.104Z,27.93
2022-08-19T10:18:01.002Z,27.16
2022-08-19T10:21:11.885Z,28.01
2022-08-19T10:24:17.920Z,28.45
2022-08-19T10:27:26.383Z,29.05
2022-08-19T10:30:38.551Z,29.40
2022-08-19T10:33:53.358Z,29.55
2022-08-19T10:37:10.750Z,30.04
2022-08-19T10:40:18.166Z,33.55
2022-08-19T10:43:24.934Z,35.68
2022-08-19T10:46:34.450Z,36.74
2022-08-19T10:50:03.414Z,37.38
2022-08-19T10:53:11.638Z,38.40
2022-08-19T10:56:38.197Z,39.08
2022-08-19T10:59:45.748Z,39.10
2022-08-19T11:02:53.456Z,39.71
2022-08-19T11:06:03.790Z,39.99
2022-08-19T11:09:10.448Z,40.21
2022-08-19T11:12:17.653Z,40.52
2022-08-19T11:15:24.098Z,40.77
2022-08-19T11:18:30.730Z,40.67
2022-08-19T11:21:38.776Z,40.87
2022-08-19T11:24:45.796Z,41.37
2022-08-19T11:27:52.949Z,41.25
2022-08-19T11:30:59.651Z,42.29
2022-08-19T11:34:07.500Z,41.70
2022-08-19T11:37:13.722Z,41.53
2022-08-19T11:40:19.949Z,41.29
2022-08-19T11:43:28.293Z,41.23
2022-08-19T11:46:34.680Z,40.96
2022-08-19T11:49:41.244Z,41.10
2022-08-19T11:52:48.646Z,40.58
2022-08-19T11:55:57.785Z,40.86
2022-08-19T11:59:04.265Z,41.13
2022-08-19T12:02:10.735Z,41.41
2022-08-19T12:05:17.881Z,41.21
2022-08-19T12:08:24.438Z,41.22
2022-08-19T12:11:34.731Z,41.38
2022-08-19T12:14:42.185Z,41.12
2022-08-19T12:17:48.343Z,40.75
2022-08-19T12:20:58.912Z,40.84
2022-08-19T12:24:07.497Z,40.49
2022-08-19T12:27:13.733Z,40.77
2022-08-19T12:30:41.605Z,41.48
2022-08-19T12:33:48.854Z,42.85
2022-08-19T12:36:55.015Z,43.88
2022-08-19T12:40:01.306Z,44.31
2022-08-19T12:43:14.834Z,44.68
2022-08-19T12:46:26.049Z,45.35
2022-08-19T12:49:53.838Z,44.52
2022-08-19T12:53:04.101Z,44.29
2022-08-19T12:56:12.992Z,44.10
2022-08-19T12:59:20.349Z,44.63
2022-08-19T13:02:26.464Z,44.91
2022-08-19T13:05:37.736Z,44.54
2022-08-19T13:08:46.609Z,45.61
2022-08-19T13:11:52.705Z,45.44
2022-08-19T13:14:59.606Z,46.51
2022-08-19T13:18:06.149Z,46.28
2022-08-19T13:21:15.944Z,46.13
2022-08-19T13:24:22.078Z,45.76
2022-08-19T13:27:34.326Z,44.70
2022-08-19T13:31:07.005Z,43.80
2022-08-19T13:34:17.035Z,43.33
2022-08-19T13:37:44.597Z,43.56
2022-08-19T13:40:52.030Z,42.98
2022-08-19T13:43:58.774Z,44.40
2022-08-19T13:47:10.460Z,44.51
2022-08-19T13:50:18.957Z,44.94
2022-08-19T13:53:25.220Z,45.69
2022-08-19T13:56:31.688Z,45.72
2022-08-19T13:59:37.982Z,46.37
2022-08-19T14:02:45.188Z,47.16
2022-08-19T14:05:51.298Z,48.70
2022-08-19T14:08:57.450Z,53.09
2022-08-19T14:13:11.259Z,60.59
2022-08-19T14:16:18.525Z,61.97
2022-08-19T14:19:24.485Z,65.46
2022-08-19T14:22:41.261Z,66.43
2022-08-19T14:25:48.411Z,66.52
2022-08-19T14:28:54.794Z,68.26
2022-08-19T14:32:00.815Z,69.74
2022-08-19T14:35:09.224Z,71.10
2022-08-19T14:38:18.994Z,72.03
2022-08-19T14:41:48.021Z,74.22
2022-08-19T14:44:54.297Z,74.33
2022-08-19T14:48:02.028Z,74.67
2022-08-19T14:51:09.682Z,75.00
2022-08-19T14:54:15.864Z,73.71
2022-08-19T14:57:21.851Z,72.79
2022-08-19T15:00:28.908Z,73.95
2022-08-19T15:03:35.098Z,71.28
2022-08-19T15:06:41.609Z,71.56
2022-08-19T15:09:47.689Z,71.82
2022-08-19T15:12:55.098Z,73.06
2022-08-19T15:16:02.911Z,73.76
2022-08-19T15:19:25.152Z,74.43
2022-08-19T15:22:32.894Z,74.25
2022-08-19T15:25:40.256Z,74.88
2022-08-19T15:28:49.212Z,75.05
2022-08-19T15:31:58.811Z,77.52
2022-08-19T15:35:09.833Z,75.50
2022-08-19T15:38:19.132Z,75.36
2022-08-19T15:41:32.137Z,75.91
2022-08-19T15:44:41.950Z,76.65
2022-08-19T15:47:50.578Z,76.88
2022-08-19T15:50:58.153Z,77.42
2022-08-19T15:54:08.229Z,77.48
2022-08-19T15:57:24.134Z,78.01
2022-08-19T16:00:51.552Z,77.82
2022-08-19T16:04:40.972Z,77.83
2022-08-19T16:07:48.973Z,77.42
2022-08-19T16:10:55.796Z,76.25
2022-08-19T16:14:03.476Z,76.51
2022-08-19T16:17:12.672Z,75.86
2022-08-19T16:20:19.043Z,75.96
2022-08-19T16:23:27.759Z,75.66
2022-08-19T16:26:35.574Z,74.62
2022-08-19T16:29:41.784Z,77.37
2022-08-19T16:32:47.601Z,76.41
2022-08-19T16:36:00.154Z,77.28
2022-08-19T16:39:22.927Z,77.43
2022-08-19T16:42:29.026Z,77.55
2022-08-19T16:45:35.001Z,77.99
2022-08-19T16:48:43.849Z,79.13
2022-08-19T16:51:50.098Z,78.80
2022-08-19T16:54:56.376Z,77.47
2022-08-19T16:58:05.746Z,77.44
2022-08-19T17:01:13.078Z,76.95
2022-08-19T17:04:23.417Z,76.81
2022-08-19T17:07:33.217Z,77.14
2022-08-19T17:10:45.575Z,77.68
2022-08-19T17:14:09.488Z,76.42
2022-08-19T17:17:15.609Z,75.82
2022-08-19T17:20:22.934Z,73.05
2022-08-19T17:23:42.372Z,76.29
2022-08-19T17:26:58.655Z,75.79
2022-08-19T17:30:07.635Z,74.70
2022-08-19T17:33:13.825Z,75.01
2022-08-19T17:36:24.136Z,76.75
2022-08-19T17:39:30.533Z,78.86
2022-08-19T17:42:58.119Z,79.41
2022-08-19T17:46:05.751Z,78.37
2022-08-19T17:49:12.318Z,76.78
2022-08-19T17:52:18.503Z,77.26
2022-08-19T17:55:25.955Z,77.68
2022-08-19T17:58:31.829Z,78.00
2022-08-19T18:01:53.916Z,78.31
2022-08-19T18:05:08.070Z,80.08
2022-08-19T18:08:14.595Z,80.46
2022-08-19T18:11:21.031Z,79.85
2022-08-19T18:14:33.963Z,79.39
2022-08-19T18:17:41.060Z,80.46
2022-08-19T18:20:47.236Z,80.64
2022-08-19T18:23:53.221Z,80.44
2022-08-19T18:27:22.541Z,81.38
2022-08-19T18:30:35.608Z,80.99
2022-08-19T18:33:44.389Z,80.75
2022-08-19T18:36:53.871Z,80.81
2022-08-19T18:40:21.199Z,82.90
2022-08-19T18:43:47.429Z,82.43
2022-08-19T18:47:15.332Z,82.81
2022-08-19T18:50:22.621Z,82.52
2022-08-19T18:53:31.529Z,81.72
2022-08-19T18:56:40.089Z,81.22
2022-08-19T18:59:48.737Z,81.28
2022-08-19T19:02:55.304Z,81.58
2022-08-19T19:06:02.444Z,81.83
2022-08-19T19:09:11.370Z,81.75
2022-08-19T19:12:19.349Z,81.86
2022-08-19T19:15:25.194Z,81.26
2022-08-19T19:18:32.489Z,81.08
2022-08-19T19:21:38.279Z,82.86
2022-08-19T19:24:47.490Z,82.23
2022-08-19T19:27:55.725Z,81.65
2022-08-19T19:31:02.735Z,81.35
2022-08-19T19:34:29.265Z,81.51
2022-08-19T19:37:37.039Z,83.35
2022-08-19T19:40:43.220Z,84.49
2022-08-19T19:43:59.919Z,84.26
2022-08-19T19:47:20.276Z,84.25
2022-08-19T19:50:32.048Z,83.81
2022-08-19T19:53:38.171Z,83.45
2022-08-19T19:56:46.378Z,84.89
2022-08-19T19:59:52.201Z,84.89
2022-08-19T20:02:58.814Z,85.05
2022-08-19T20:06:05.413Z,84.97
2022-08-19T20:09:14.221Z,85.10
2022-08-19T20:12:23.892Z,85.19
2022-08-19T20:15:32.082Z,85.80
2022-08-19T20:18:40.012Z,85.99
2022-08-19T20:21:50.797Z,86.55
2022-08-19T20:24:57.805Z,86.92
2022-08-19T20:28:07.059Z,86.23
2022-08-19T20:31:13.295Z,86.16
2022-08-19T20:34:19.439Z,87.53
2022-08-19T20:37:26.616Z,87.23
2022-08-19T20:40:34.877Z,87.90
2022-08-19T20:43:41.323Z,87.10
2022-08-19T20:46:54.701Z,87.36
2022-08-19T20:50:17.774Z,87.10
2022-08-19T20:53:25.469Z,87.07
2022-08-19T20:56:31.633Z,87.18
2022-08-19T20:59:39.136Z,86.60
2022-08-19T21:02:45.694Z,86.45
2022-08-19T21:05:52.949Z,86.90
2022-08-19T21:08:58.921Z,87.05
2022-08-19T21:12:06.790Z,86.50
2022-08-19T21:15:13.020Z,86.30
2022-08-19T21:18:21.444Z,85.77
2022-08-19T21:21:27.722Z,85.79
2022-08-19T21:24:34.087Z,85.38
2022-08-19T21:27:39.970Z,85.20
2022-08-19T21:30:46.870Z,84.53
2022-08-19T21:33:52.607Z,85.46
2022-08-19T21:36:59.008Z,86.01
2022-08-19T21:40:06.223Z,85.93
2022-08-19T21:43:12.349Z,84.83
2022-08-19T21:46:18.371Z,84.31
2022-08-19T21:49:24.971Z,82.91
2022-08-19T21:52:31.651Z,81.25
2022-08-19T21:55:52.856Z,79.30
2022-08-19T21:59:15.345Z,79.24
2022-08-19T22:02:21.931Z,79.44
2022-08-19T22:05:29.289Z,79.20
2022-08-19T22:08:35.774Z,80.71
2022-08-19T22:11:43.953Z,80.55
2022-08-19T22:14:51.213Z,79.24
2022-08-19T22:17:59.347Z,78.82
2022-08-19T22:21:11.379Z,78.59
2022-08-19T22:24:17.843Z,78.62
2022-08-19T22:27:23.749Z,79.31
2022-08-19T22:30:33.273Z,79.18
2022-08-19T22:33:40.406Z,79.36
2022-08-19T22:36:46.410Z,79.63
2022-08-19T22:39:53.188Z,80.18
2022-08-19T22:43:04.344Z,80.41
2022-08-19T22:46:16.802Z,82.36
2022-08-19T22:49:39.086Z,82.99
2022-08-19T22:52:52.023Z,83.57
2022-08-19T22:56:15.533Z,84.03
2022-08-19T22:59:22.165Z,84.55
2022-08-19T23:02:35.265Z,85.63
2022-08-19T23:05:41.883Z,85.16
2022-08-19T23:08:48.063Z,85.12
2022-08-19T23:11:54.773Z,85.95
2022-08-19T23:15:14.362Z,85.56
2022-08-19T23:18:21.087Z,85.41
2022-08-19T23:21:27.579Z,87.13
2022-08-19T23:24:33.598Z,86.97
2022-08-19T23:28:00.496Z,86.92
2022-08-19T23:31:08.325Z,86.82
2022-08-19T23:34:14.173Z,87.88
2022-08-19T23:37:20.403Z,88.84
2022-08-19T23:40:28.554Z,88.39
2022-08-19T23:43:35.265Z,89.14
2022-08-19T23:46:54.409Z,89.01
2022-08-19T23:50:10.212Z,89.24
2022-08-19T23:53:16.758Z,89.36
2022-08-19T23:56:23.277Z,89.67
2022-08-19T23:59:29.577Z,90.03
